Time;durP1;ratioP1;P1;durP2;ratioP2;P2;SDS_P1;SDS_P2;PMS_P1;PMS_P2;Temp;Humidity;BMP_temperature;BMP_pressure;BME280_temperature;BME280_humidity;BME280_pressure;Samples;Min_cycle;Max_cycle;Signal;HPM_P1;HPM_P2
2022/03/04 00:01:18;;;;;;;6.43;5.30;;;0.30;62.10;;;;;;5096993;28;20480;-78
2022/03/04 00:03:44;;;;;;;8.95;5.60;;;0.20;62.40;;;;;;5115262;28;20051;-76
2022/03/04 00:06:10;;;;;;;11.63;6.03;;;0.20;62.60;;;;;;5115125;28;20019;-77
2022/03/04 00:08:36;;;;;;;11.10;6.10;;;0.20;62.80;;;;;;5115546;28;20042;-76
2022/03/04 00:11:02;;;;;;;9.77;5.30;;;0.10;62.90;;;;;;5115423;28;20043;-76
2022/03/04 00:13:32;;;;;;;12.38;5.70;;;0.10;63.10;;;;;;5115120;28;20048;-77
2022/03/04 00:15:58;;;;;;;8.73;5.60;;;0.10;63.50;;;;;;5114592;28;20030;-76
2022/03/04 00:18:24;;;;;;;12.73;6.32;;;0.00;63.50;;;;;;5115192;28;20036;-78
2022/03/04 00:20:51;;;;;;;10.38;5.75;;;0.00;63.70;;;;;;5115148;28;20064;-78
2022/03/04 00:23:18;;;;;;;10.77;5.50;;;0.00;63.70;;;;;;5115198;28;20114;-75
2022/03/04 00:25:44;;;;;;;8.23;6.18;;;0.00;64.10;;;;;;5115163;28;20076;-77
2022/03/04 00:28:10;;;;;;;13.20;6.57;;;-0.10;63.90;;;;;;5114446;28;20027;-77
2022/03/04 00:30:36;;;;;;;8.52;5.63;;;-0.10;64.10;;;;;;5115041;28;20027;-77
2022/03/04 00:33:02;;;;;;;7.80;5.15;;;-0.10;64.20;;;;;;5115049;28;20028;-77
2022/03/04 00:35:27;;;;;;;8.73;5.32;;;-0.10;64.60;;;;;;5115013;28;20353;-76
2022/03/04 00:37:53;;;;;;;17.67;7.03;;;-0.10;64.90;;;;;;5096532;28;20024;-77
2022/03/04 00:40:19;;;;;;;10.45;5.90;;;-0.20;65.00;;;;;;5114968;28;20423;-77
2022/03/04 00:42:45;;;;;;;17.77;6.20;;;-0.20;65.30;;;;;;5114841;28;20031;-76
2022/03/04 00:45:11;;;;;;;10.95;5.00;;;-0.20;65.50;;;;;;5114917;28;20035;-78
2022/03/04 00:47:37;;;;;;;11.98;5.60;;;-0.20;65.50;;;;;;5120542;28;20020;-76
2022/03/04 00:50:04;;;;;;;15.55;5.93;;;-0.20;65.50;;;;;;5115142;28;20024;-78
2022/03/04 00:52:30;;;;;;;8.90;5.90;;;-0.30;65.50;;;;;;5115264;28;20103;-77
2022/03/04 00:54:56;;;;;;;10.80;7.00;;;-0.30;65.50;;;;;;5115839;28;20484;-77
2022/03/04 00:57:22;;;;;;;10.63;5.70;;;-0.40;65.80;;;;;;5114790;28;20028;-77
2022/03/04 00:59:48;;;;;;;10.73;6.00;;;-0.40;65.90;;;;;;5114645;28;20027;-75
2022/03/04 01:02:14;;;;;;;10.50;5.72;;;-0.50;66.20;;;;;;5114290;28;20032;-77
2022/03/04 01:04:39;;;;;;;10.15;4.88;;;-0.50;66.50;;;;;;5114312;28;20016;-76
2022/03/04 01:07:05;;;;;;;13.68;5.70;;;-0.50;66.60;;;;;;5114539;28;20020;-75
2022/03/04 01:09:31;;;;;;;10.88;5.97;;;-0.60;66.90;;;;;;5114423;28;20022;-75
2022/03/04 01:11:57;;;;;;;11.35;5.93;;;-0.60;67.10;;;;;;5113825;28;20111;-74
2022/03/04 01:14:23;;;;;;;8.90;5.50;;;-0.70;67.30;;;;;;5113827;28;20043;-76
2022/03/04 01:16:49;;;;;;;10.60;6.13;;;-0.80;67.70;;;;;;5113911;28;20032;-76
2022/03/04 01:19:15;;;;;;;12.70;5.70;;;-0.80;67.90;;;;;;5113972;28;20024;-75
2022/03/04 01:21:40;;;;;;;9.05;5.93;;;-0.80;69.10;;;;;;5113552;28;20453;-77
2022/03/04 01:24:07;;;;;;;8.02;5.15;;;-0.90;68.40;;;;;;5113807;28;20032;-77
2022/03/04 01:26:33;;;;;;;11.13;6.40;;;-0.90;68.90;;;;;;5112716;28;20027;-76
2022/03/04 01:28:59;;;;;;;11.50;6.18;;;-1.00;69.10;;;;;;5113823;28;20053;-75
2022/03/04 01:31:25;;;;;;;12.55;5.85;;;-1.00;69.30;;;;;;5113897;28;20066;-77
2022/03/04 01:33:50;;;;;;;9.45;6.35;;;-1.00;69.40;;;;;;5114025;28;20480;-76
2022/03/04 01:36:16;;;;;;;16.05;7.47;;;-1.10;69.60;;;;;;5095257;28;20024;-77
2022/03/04 01:38:42;;;;;;;11.57;6.30;;;-1.10;70.00;;;;;;5113973;28;20550;-76
2022/03/04 01:41:08;;;;;;;11.30;6.75;;;-1.10;70.10;;;;;;5115866;28;20135;-77
2022/03/04 01:43:35;;;;;;;11.95;6.85;;;-1.20;70.30;;;;;;5098581;28;20056;-77
2022/03/04 01:46:15;;;;;;;10.30;6.78;;;-1.20;70.60;;;;;;5096212;28;20521;-77
2022/03/04 01:48:44;;;;;;;14.10;6.90;;;-1.30;70.80;;;;;;5113965;28;20055;-76
2022/03/04 01:51:10;;;;;;;11.48;7.20;;;-1.30;71.00;;;;;;5113669;28;20110;-76
2022/03/04 01:53:37;;;;;;;15.05;6.47;;;-1.40;71.20;;;;;;5113797;28;20024;-77
2022/03/04 01:56:03;;;;;;;12.90;6.55;;;-1.40;71.70;;;;;;5113877;28;20388;-78
2022/03/04 01:58:28;;;;;;;14.75;8.55;;;-1.40;72.10;;;;;;5113171;28;20027;-75
2022/03/04 02:00:54;;;;;;;12.43;7.20;;;-1.50;72.30;;;;;;5113143;28;20028;-76
2022/03/04 02:03:20;;;;;;;14.05;7.82;;;-1.60;72.60;;;;;;5112977;28;20040;-76
2022/03/04 02:05:46;;;;;;;11.68;7.57;;;-1.60;73.20;;;;;;5113176;28;20024;-78
2022/03/04 02:08:12;;;;;;;12.70;6.97;;;-1.70;74.40;;;;;;5113233;28;20027;-76
2022/03/04 02:10:38;;;;;;;13.18;8.05;;;-1.70;74.40;;;;;;5094566;28;20043;-78
2022/03/04 02:13:04;;;;;;;17.67;8.27;;;-1.80;74.30;;;;;;5112951;28;20035;-77
2022/03/04 02:15:30;;;;;;;22.88;8.52;;;-1.80;74.50;;;;;;5113021;28;20020;-77
2022/03/04 02:17:57;;;;;;;18.55;8.05;;;-1.80;74.80;;;;;;5095197;28;20386;-76
2022/03/04 02:20:22;;;;;;;15.07;7.93;;;-1.90;75.20;;;;;;5112908;28;20038;-78
2022/03/04 02:22:50;;;;;;;16.35;9.68;;;-1.90;75.50;;;;;;5112791;28;20050;-77
2022/03/04 02:25:16;;;;;;;15.15;8.13;;;-1.90;75.80;;;;;;5112560;28;20459;-77
2022/03/04 02:27:41;;;;;;;13.75;8.23;;;-1.90;76.30;;;;;;5112539;28;20024;-77
2022/03/04 02:30:07;;;;;;;13.25;7.68;;;-2.00;76.30;;;;;;5094492;28;20111;-78
2022/03/04 02:32:33;;;;;;;13.80;8.02;;;-2.00;76.40;;;;;;5094240;28;20547;-76
2022/03/04 02:35:01;;;;;;;15.07;9.77;;;-2.00;76.50;;;;;;5112348;28;20099;-77
2022/03/04 02:37:27;;;;;;;14.43;8.95;;;-2.00;76.80;;;;;;5112363;28;20020;-76
2022/03/04 02:39:53;;;;;;;15.20;8.80;;;-2.00;77.10;;;;;;5112973;28;20365;-78
2022/03/04 02:42:19;;;;;;;17.83;9.20;;;-2.00;77.30;;;;;;5094069;28;20059;-77
2022/03/04 02:44:45;;;;;;;17.98;9.35;;;-2.10;77.40;;;;;;5112523;28;20020;-76
2022/03/04 02:47:10;;;;;;;13.65;9.15;;;-2.10;77.70;;;;;;5112547;28;20518;-77
2022/03/04 02:49:36;;;;;;;15.20;7.45;;;-2.10;77.90;;;;;;5113150;28;20035;-77
2022/03/04 02:52:02;;;;;;;14.07;9.20;;;-2.10;78.50;;;;;;5116426;28;20019;-77
2022/03/04 02:54:28;;;;;;;19.33;10.52;;;-2.10;79.80;;;;;;5114093;28;20051;-78
2022/03/04 02:56:54;;;;;;;17.90;10.73;;;-2.10;79.10;;;;;;5094298;28;20051;-76
2022/03/04 02:59:19;;;;;;;16.63;9.50;;;-2.10;79.00;;;;;;5095217;28;20032;-76
2022/03/04 03:01:45;;;;;;;16.90;9.70;;;-2.20;79.10;;;;;;5112235;28;20388;-79
2022/03/04 03:04:11;;;;;;;18.77;12.10;;;-2.20;79.80;;;;;;5112731;28;20392;-78
2022/03/04 03:06:37;;;;;;;17.75;9.75;;;-2.20;79.70;;;;;;5112641;28;20024;-78
2022/03/04 03:09:03;;;;;;;17.55;9.10;;;-2.20;80.10;;;;;;5112197;28;20138;-75
2022/03/04 03:11:29;;;;;;;13.57;8.13;;;-2.20;80.20;;;;;;5093789;28;20040;-78
2022/03/04 03:13:55;;;;;;;16.17;9.75;;;-2.20;80.50;;;;;;5112158;28;20049;-79
2022/03/04 03:16:21;;;;;;;13.85;8.35;;;-2.30;80.70;;;;;;5111960;28;20023;-75
2022/03/04 03:18:50;;;;;;;17.23;9.70;;;-2.20;80.50;;;;;;5112116;28;20024;-81
2022/03/04 03:21:15;;;;;;;18.67;10.35;;;-2.30;80.70;;;;;;5112358;28;20419;-78
2022/03/04 03:23:42;;;;;;;15.70;9.10;;;-2.30;80.90;;;;;;5093797;28;20032;-78
2022/03/04 03:26:08;;;;;;;15.40;10.48;;;-2.30;80.80;;;;;;5111990;28;20035;-79
2022/03/04 03:28:34;;;;;;;15.45;9.93;;;-2.30;80.90;;;;;;5112422;28;20024;-77
2022/03/04 03:31:00;;;;;;;14.00;10.48;;;-2.30;81.00;;;;;;5111982;28;20016;-78
2022/03/04 03:33:26;;;;;;;16.77;9.52;;;-2.30;81.10;;;;;;5111931;28;20073;-79
2022/03/04 03:35:54;;;;;;;19.35;9.77;;;-2.30;81.30;;;;;;5112586;28;20452;-77
2022/03/04 03:38:22;;;;;;;16.13;9.25;;;-2.30;81.40;;;;;;5111833;28;20104;-78
2022/03/04 03:40:48;;;;;;;18.27;9.88;;;-2.30;81.50;;;;;;5112050;28;20039;-77
2022/03/04 03:43:14;;;;;;;19.67;10.95;;;-2.40;81.60;;;;;;5093586;28;20044;-75
2022/03/04 03:45:39;;;;;;;15.50;10.27;;;-2.40;81.70;;;;;;5108656;28;20027;-76
2022/03/04 03:48:05;;;;;;;19.45;10.98;;;-2.40;81.90;;;;;;5112140;28;20027;-75
2022/03/04 03:50:31;;;;;;;21.60;11.50;;;-2.50;82.30;;;;;;5115649;28;20024;-76
2022/03/04 03:52:57;;;;;;;19.05;10.90;;;-2.50;82.60;;;;;;5124560;28;20023;-75
2022/03/04 03:55:23;;;;;;;22.67;10.73;;;-2.50;82.70;;;;;;5117141;28;20081;-74
2022/03/04 03:57:49;;;;;;;21.23;11.35;;;-2.50;82.90;;;;;;5115621;28;20019;-78
2022/03/04 04:00:15;;;;;;;16.65;11.65;;;-2.60;83.30;;;;;;5115743;28;20019;-81
2022/03/04 04:02:41;;;;;;;19.38;12.00;;;-2.60;84.30;;;;;;5115465;28;20042;-78
2022/03/04 04:05:10;;;;;;;21.03;13.53;;;-2.70;84.20;;;;;;5097216;28;20015;-78
2022/03/04 04:07:37;;;;;;;16.73;11.13;;;-2.70;84.60;;;;;;5115367;28;20702;-77
2022/03/04 04:10:04;;;;;;;14.35;7.88;;;-2.80;84.80;;;;;;5097141;28;20024;-77
2022/03/04 04:12:29;;;;;;;24.50;12.27;;;-2.80;85.20;;;;;;5115538;28;20064;-77
2022/03/04 04:14:55;;;;;;;14.88;11.10;;;-2.90;85.40;;;;;;5115370;28;20096;-78
2022/03/04 04:17:22;;;;;;;20.48;13.23;;;-2.90;86.10;;;;;;5115168;28;20019;-78
2022/03/04 04:19:48;;;;;;;16.65;10.85;;;-3.00;86.20;;;;;;5113550;28;20027;-78
2022/03/04 04:22:13;;;;;;;21.85;13.23;;;-3.00;86.40;;;;;;5094674;28;20112;-79
2022/03/04 04:24:39;;;;;;;22.45;13.85;;;-3.10;87.00;;;;;;5113898;28;20031;-76
2022/03/04 04:27:05;;;;;;;20.10;13.68;;;-3.10;87.20;;;;;;5115093;28;20016;-79
2022/03/04 04:29:31;;;;;;;25.02;17.52;;;-3.20;87.60;;;;;;5115094;28;20432;-78
2022/03/04 04:31:57;;;;;;;22.23;14.65;;;-3.20;88.10;;;;;;5114850;28;20061;-77
2022/03/04 04:34:23;;;;;;;19.52;13.13;;;-3.10;88.50;;;;;;5115336;28;20431;-76
2022/03/04 04:36:50;;;;;;;21.02;13.80;;;-3.10;88.50;;;;;;5115395;28;20030;-78
2022/03/04 04:39:15;;;;;;;22.77;14.32;;;-3.10;88.60;;;;;;5097024;28;20031;-79
2022/03/04 04:41:44;;;;;;;20.00;12.40;;;-3.00;88.70;;;;;;5097554;28;20031;-79
2022/03/04 04:44:10;;;;;;;24.13;15.20;;;-2.90;88.80;;;;;;5115839;28;20024;-80
2022/03/04 04:46:36;;;;;;;28.38;14.43;;;-2.90;88.90;;;;;;5115917;28;20024;-77
2022/03/04 04:49:02;;;;;;;25.83;14.43;;;-2.90;89.00;;;;;;5115243;28;20049;-77
2022/03/04 04:51:28;;;;;;;27.90;17.80;;;-3.00;89.30;;;;;;5115213;28;20019;-76
2022/03/04 04:53:54;;;;;;;27.13;15.13;;;-3.00;89.60;;;;;;5114978;28;20144;-77
2022/03/04 04:56:21;;;;;;;25.05;15.70;;;-3.00;89.80;;;;;;5115122;28;20027;-77
2022/03/04 04:58:47;;;;;;;31.60;16.40;;;-3.00;90.10;;;;;;5115231;28;20035;-79
2022/03/04 05:01:13;;;;;;;25.60;16.58;;;-3.10;90.10;;;;;;5113599;28;20030;-80
2022/03/04 05:03:39;;;;;;;24.25;13.65;;;-3.10;90.20;;;;;;5096510;28;20208;-79
2022/03/04 05:06:05;;;;;;;29.23;15.52;;;-3.10;90.40;;;;;;5115198;28;20020;-79
2022/03/04 05:08:31;;;;;;;31.65;16.10;;;-3.10;90.40;;;;;;5114901;28;20076;-77
2022/03/04 05:10:57;;;;;;;25.30;14.40;;;-3.10;90.50;;;;;;5115089;28;20036;-79
2022/03/04 05:13:23;;;;;;;26.42;14.35;;;-3.00;90.70;;;;;;5116406;28;20070;-78
2022/03/04 05:15:49;;;;;;;21.85;14.43;;;-3.00;90.70;;;;;;5116496;28;20019;-77
2022/03/04 05:18:15;;;;;;;28.50;17.88;;;-2.90;90.80;;;;;;5115475;28;20451;-79
2022/03/04 05:20:41;;;;;;;26.25;15.88;;;-2.80;90.70;;;;;;5114962;28;20073;-76
2022/03/04 05:23:07;;;;;;;25.10;16.38;;;-2.80;90.60;;;;;;5114550;28;20020;-76
2022/03/04 05:25:33;;;;;;;24.02;15.00;;;-2.80;90.80;;;;;;5114874;28;20377;-78
2022/03/04 05:28:03;;;;;;;34.85;20.23;;;-2.80;90.50;;;;;;5114421;28;20027;-78
2022/03/04 05:30:28;;;;;;;30.35;17.95;;;-2.80;90.50;;;;;;5096117;28;20023;-78
2022/03/04 05:32:54;;;;;;;27.13;14.50;;;-2.80;90.70;;;;;;5114913;28;20080;-78
2022/03/04 05:35:20;;;;;;;29.50;16.08;;;-2.80;90.70;;;;;;5114698;28;20012;-78
2022/03/04 05:37:46;;;;;;;27.27;16.42;;;-2.70;90.70;;;;;;5114260;28;20477;-79
2022/03/04 05:40:12;;;;;;;28.17;17.65;;;-2.60;90.70;;;;;;5114658;28;20012;-80
2022/03/04 05:42:38;;;;;;;25.17;15.50;;;-2.60;90.70;;;;;;5113774;28;20035;-79
2022/03/04 05:45:04;;;;;;;27.77;16.65;;;-2.50;90.60;;;;;;5110159;28;20024;-80
2022/03/04 05:47:30;;;;;;;25.10;16.42;;;-2.40;90.50;;;;;;5075009;28;20121;-80
2022/03/04 05:49:55;;;;;;;30.90;15.52;;;-2.50;90.60;;;;;;5076789;28;20038;-79
2022/03/04 05:52:21;;;;;;;29.75;16.88;;;-2.50;90.50;;;;;;5077072;28;20164;-80
2022/03/04 05:54:47;;;;;;;24.15;14.23;;;-2.50;90.60;;;;;;5096052;28;20016;-80
2022/03/04 05:57:13;;;;;;;32.47;15.63;;;-2.50;90.70;;;;;;5098077;28;20024;-80
2022/03/04 05:59:39;;;;;;;25.00;14.90;;;-2.40;90.70;;;;;;5079765;28;20487;-81
2022/03/04 06:02:05;;;;;;;23.73;14.57;;;-2.30;90.60;;;;;;5098656;28;20028;-79
2022/03/04 06:04:30;;;;;;;28.92;14.55;;;-2.30;90.40;;;;;;5080188;28;20104;-80
2022/03/04 06:06:56;;;;;;;23.58;15.05;;;-2.30;90.40;;;;;;5095569;28;20031;-78
2022/03/04 06:09:27;;;;;;;23.95;14.75;;;-2.30;90.30;;;;;;5094093;28;20016;-78
2022/03/04 06:11:54;;;;;;;24.17;15.45;;;-2.30;90.20;;;;;;5092297;28;20090;-79
2022/03/04 06:14:20;;;;;;;21.88;13.98;;;-2.40;90.20;;;;;;5074745;28;20031;-78
2022/03/04 06:16:46;;;;;;;25.48;15.68;;;-2.40;90.20;;;;;;5092804;28;20479;-79
2022/03/04 06:19:11;;;;;;;25.80;15.23;;;-2.40;90.20;;;;;;5092161;28;20032;-79
2022/03/04 06:21:37;;;;;;;26.15;14.00;;;-2.50;90.30;;;;;;5076773;28;20027;-78
2022/03/04 06:24:04;;;;;;;38.97;14.02;;;-2.50;90.30;;;;;;5092042;28;20020;-76
2022/03/04 06:26:30;;;;;;;21.77;13.10;;;-2.50;90.40;;;;;;5094767;28;20416;-77
2022/03/04 06:28:56;;;;;;;23.90;13.10;;;-2.40;90.40;;;;;;5083190;28;20114;-78
2022/03/04 06:31:22;;;;;;;21.30;13.10;;;-2.40;90.40;;;;;;5093240;28;20110;-79
2022/03/04 06:33:47;;;;;;;25.10;14.52;;;-2.40;90.50;;;;;;5092125;28;20035;-79
2022/03/04 06:36:14;;;;;;;24.85;13.15;;;-2.40;90.50;;;;;;5101971;28;20423;-82
2022/03/04 06:38:42;;;;;;;19.88;11.15;;;-2.40;90.60;;;;;;5112702;28;20046;-79
2022/03/04 06:41:10;;;;;;;21.45;13.50;;;-2.30;90.40;;;;;;5112403;28;20113;-78
2022/03/04 06:43:36;;;;;;;;;;;-2.30;90.40;;;;;;5096582;28;20071;-79
2022/03/04 06:46:03;;;;;;;21.23;12.00;;;-2.30;90.30;;;;;;5073208;28;19953;-76
2022/03/04 06:48:29;;;;;;;19.85;11.95;;;-2.30;90.30;;;;;;5091777;28;20016;-77
2022/03/04 06:50:55;;;;;;;18.42;10.40;;;-2.30;90.40;;;;;;5091476;28;20038;-79
2022/03/04 06:53:21;;;;;;;17.42;11.50;;;-2.10;90.30;;;;;;5090974;28;20089;-77
2022/03/04 06:55:48;;;;;;;18.42;12.20;;;-2.10;90.10;;;;;;5091476;28;20103;-76
2022/03/04 06:58:14;;;;;;;21.20;12.30;;;-2.10;90.00;;;;;;5091829;28;20117;-76
2022/03/04 07:00:41;;;;;;;20.83;13.55;;;-2.00;90.00;;;;;;5091803;28;20024;-77
2022/03/04 07:03:08;;;;;;;19.87;12.77;;;-2.00;89.60;;;;;;5073762;28;20446;-77
2022/03/04 07:05:35;;;;;;;19.50;11.90;;;-2.00;89.40;;;;;;5091945;28;20366;-77
2022/03/04 07:08:01;;;;;;;22.88;13.23;;;-2.00;89.20;;;;;;5073663;28;20029;-77
2022/03/04 07:10:26;;;;;;;23.73;13.05;;;-1.90;89.40;;;;;;5108724;28;20020;-78
2022/03/04 07:12:53;;;;;;;21.15;12.70;;;-1.80;89.00;;;;;;5093862;28;20043;-76
2022/03/04 07:15:19;;;;;;;18.05;12.73;;;-1.80;88.70;;;;;;5094669;28;20116;-77
2022/03/04 07:17:48;;;;;;;21.35;12.60;;;-1.80;88.60;;;;;;5093800;28;20023;-75
2022/03/04 07:20:14;;;;;;;20.02;13.52;;;-1.60;88.40;;;;;;5090493;28;20493;-75
2022/03/04 07:22:42;;;;;;;16.35;11.52;;;-1.50;88.20;;;;;;5091927;28;20016;-75
2022/03/04 07:25:12;;;;;;;20.63;13.93;;;-1.50;87.50;;;;;;5075973;28;20389;-77
2022/03/04 07:27:39;;;;;;;17.00;10.65;;;-1.50;87.20;;;;;;5110460;28;20024;-76
2022/03/04 07:30:08;;;;;;;16.00;9.60;;;-1.50;87.30;;;;;;5115755;28;20102;-77
2022/03/04 07:32:34;;;;;;;16.15;10.13;;;-1.30;87.10;;;;;;5115976;28;20032;-78
2022/03/04 07:35:00;;;;;;;16.60;12.43;;;-1.30;86.70;;;;;;5097950;28;20111;-78
2022/03/04 07:37:26;;;;;;;14.82;8.23;;;-1.20;86.10;;;;;;5116835;28;20024;-76
2022/03/04 07:39:53;;;;;;;14.80;8.48;;;-1.30;85.90;;;;;;5115837;28;20020;-78
2022/03/04 07:42:18;;;;;;;16.00;10.02;;;-1.30;86.10;;;;;;5096407;28;20027;-78
2022/03/04 07:44:44;;;;;;;18.00;10.18;;;-1.20;86.20;;;;;;5115912;28;20073;-76
2022/03/04 07:47:10;;;;;;;16.48;11.27;;;-1.20;85.80;;;;;;5115835;28;20032;-77
2022/03/04 07:49:36;;;;;;;15.25;10.00;;;-1.00;85.90;;;;;;5116113;28;20031;-77
2022/03/04 07:52:02;;;;;;;17.17;10.50;;;-0.90;85.20;;;;;;5116004;28;20107;-74
2022/03/04 07:54:28;;;;;;;16.45;9.65;;;-0.90;84.40;;;;;;5115558;28;20028;-77
2022/03/04 07:56:55;;;;;;;22.20;11.93;;;-0.80;84.40;;;;;;5097536;28;20107;-78
2022/03/04 07:59:21;;;;;;;18.33;10.50;;;-0.80;83.80;;;;;;5110830;28;20481;-78
2022/03/04 08:01:48;;;;;;;20.92;11.48;;;-0.80;84.00;;;;;;5095085;28;20032;-79
2022/03/04 08:04:13;;;;;;;13.75;9.38;;;-0.70;84.10;;;;;;5094858;28;20024;-75
2022/03/04 08:06:39;;;;;;;20.20;11.30;;;-0.60;83.90;;;;;;5094558;28;20394;-77
2022/03/04 08:09:05;;;;;;;16.77;10.32;;;-0.50;83.40;;;;;;5094840;28;20138;-75
2022/03/04 08:11:31;;;;;;;15.35;9.57;;;-0.40;83.00;;;;;;5077008;28;20404;-75
2022/03/04 08:13:57;;;;;;;19.98;9.18;;;-0.40;82.70;;;;;;5095917;28;20507;-77
2022/03/04 08:16:29;;;;;;;16.35;9.30;;;-0.40;82.70;;;;;;5094907;28;20032;-76
2022/03/04 08:18:57;;;;;;;23.83;9.82;;;-0.30;81.80;;;;;;5108411;28;20416;-76
2022/03/04 08:21:24;;;;;;;13.75;9.23;;;-0.40;82.20;;;;;;5115252;28;20125;-77
2022/03/04 08:23:50;;;;;;;19.37;9.13;;;-0.30;82.40;;;;;;5115156;28;20020;-77
2022/03/04 08:26:16;;;;;;;16.05;9.95;;;-0.20;82.00;;;;;;5115043;28;20290;-76
2022/03/04 08:28:42;;;;;;;13.60;9.35;;;-0.20;81.50;;;;;;5096266;28;20023;-77
2022/03/04 08:31:11;;;;;;;27.45;10.55;;;-0.20;81.40;;;;;;5114681;28;20030;-76
2022/03/04 08:33:41;;;;;;;18.58;9.30;;;-0.20;81.20;;;;;;5114027;28;20416;-78
2022/03/04 08:36:07;;;;;;;16.10;9.52;;;-0.10;80.80;;;;;;5114555;28;20012;-78
2022/03/04 08:38:33;;;;;;;14.07;8.77;;;-0.10;80.80;;;;;;5114814;28;20024;-77
2022/03/04 08:40:59;;;;;;;15.10;8.88;;;-0.10;80.80;;;;;;5113587;28;20460;-77
2022/03/04 08:43:25;;;;;;;14.20;7.60;;;0.00;80.80;;;;;;5114686;28;20030;-76
2022/03/04 08:45:50;;;;;;;14.57;9.07;;;0.10;80.50;;;;;;5114541;28;20530;-75
2022/03/04 08:48:16;;;;;;;11.10;7.90;;;0.20;79.70;;;;;;5114501;28;20072;-77
2022/03/04 08:50:42;;;;;;;11.70;8.25;;;0.30;79.80;;;;;;5114443;28;20012;-76
2022/03/04 08:53:08;;;;;;;13.38;8.13;;;0.40;79.40;;;;;;5114164;28;20337;-78
2022/03/04 08:55:34;;;;;;;17.13;9.10;;;0.40;79.00;;;;;;5114099;28;20059;-77
2022/03/04 08:58:00;;;;;;;14.38;8.00;;;0.60;79.00;;;;;;5114117;28;20024;-75
2022/03/04 09:00:32;;;;;;;13.85;8.52;;;0.80;78.40;;;;;;5094940;28;20419;-76
2022/03/04 09:02:57;;;;;;;13.38;8.00;;;1.00;77.50;;;;;;5096212;28;20072;-76
2022/03/04 09:05:23;;;;;;;14.07;8.45;;;0.90;76.70;;;;;;5095868;28;20028;-76
2022/03/04 09:07:49;;;;;;;12.90;8.60;;;0.80;76.50;;;;;;5114028;28;20427;-78
2022/03/04 09:10:15;;;;;;;11.88;7.88;;;0.70;76.80;;;;;;5114035;28;20035;-78
2022/03/04 09:12:41;;;;;;;11.93;8.32;;;0.80;77.00;;;;;;5095541;28;20074;-77
2022/03/04 09:15:07;;;;;;;11.02;7.05;;;1.10;76.70;;;;;;5094938;28;20024;-76
2022/03/04 09:17:34;;;;;;;16.50;8.80;;;1.50;77.00;;;;;;5096060;28;20507;-77
2022/03/04 09:19:59;;;;;;;16.52;8.77;;;1.80;74.90;;;;;;5114418;28;20098;-76
2022/03/04 09:22:25;;;;;;;12.13;8.38;;;1.90;73.10;;;;;;5095891;28;20108;-77
2022/03/04 09:24:52;;;;;;;20.42;8.80;;;1.90;72.30;;;;;;5113473;28;20496;-77
2022/03/04 09:27:18;;;;;;;13.48;8.38;;;1.80;72.60;;;;;;5113836;28;20062;-76
2022/03/04 09:29:45;;;;;;;14.80;7.28;;;1.70;72.90;;;;;;5091756;28;20060;-77
2022/03/04 09:32:12;;;;;;;10.68;8.35;;;2.00;73.40;;;;;;5093386;28;20020;-78
2022/03/04 09:34:37;;;;;;;12.60;8.55;;;2.70;71.80;;;;;;5093168;28;20024;-76
2022/03/04 09:37:04;;;;;;;13.48;8.90;;;3.30;69.60;;;;;;5110580;28;20118;-79
2022/03/04 09:39:29;;;;;;;13.57;8.18;;;3.70;67.80;;;;;;5094551;28;20430;-78
2022/03/04 09:41:55;;;;;;;15.30;10.55;;;3.70;66.70;;;;;;5113446;28;20077;-76
2022/03/04 09:44:21;;;;;;;11.88;8.15;;;3.60;66.40;;;;;;5094976;28;20479;-79
2022/03/04 09:46:47;;;;;;;14.20;8.25;;;3.40;65.60;;;;;;5111789;28;20028;-77
2022/03/04 09:49:17;;;;;;;13.65;9.55;;;2.90;66.00;;;;;;5113260;28;20093;-78
2022/03/04 09:51:44;;;;;;;12.52;7.97;;;2.40;67.80;;;;;;5113179;28;20015;-78
2022/03/04 09:54:10;;;;;;;12.15;8.02;;;2.00;69.40;;;;;;5113134;28;20063;-76
2022/03/04 09:56:36;;;;;;;13.40;7.55;;;2.20;70.60;;;;;;5112979;28;20503;-77
2022/03/04 09:59:02;;;;;;;11.95;7.50;;;3.00;70.20;;;;;;5113667;28;20024;-77
2022/03/04 10:01:28;;;;;;;10.93;5.97;;;3.70;68.10;;;;;;5113287;28;20020;-77
2022/03/04 10:03:55;;;;;;;11.63;7.82;;;3.90;65.90;;;;;;5094261;28;20039;-79
2022/03/04 10:06:22;;;;;;;11.57;7.78;;;3.80;64.80;;;;;;5113225;28;20015;-77
2022/03/04 10:08:52;;;;;;;7.97;5.90;;;3.90;65.20;;;;;;5113259;28;20493;-76
2022/03/04 10:11:30;;;;;;;6.85;5.40;;;4.60;65.30;;;;;;5112831;28;20036;-77
2022/03/04 10:14:04;;;;;;;8.68;5.47;;;4.90;62.30;;;;;;5113035;28;20084;-80
2022/03/04 10:16:40;;;;;;;11.25;5.53;;;5.40;61.60;;;;;;5093178;28;20019;-79
2022/03/04 10:19:16;;;;;;;7.85;5.28;;;5.30;60.00;;;;;;5112595;28;20138;-75
2022/03/04 10:21:48;;;;;;;9.18;4.68;;;4.80;60.50;;;;;;5112581;28;20425;-76
2022/03/04 10:24:15;;;;;;;7.38;4.68;;;4.30;61.30;;;;;;5112961;28;20392;-76
2022/03/04 10:26:41;;;;;;;8.85;5.75;;;3.80;62.30;;;;;;5112415;28;20035;-76
2022/03/04 10:29:21;;;;;;;9.18;4.90;;;3.60;63.50;;;;;;5113050;28;20028;-76
2022/03/04 10:32:06;;;;;;;10.35;5.20;;;3.50;64.60;;;;;;5093180;28;20023;-77
2022/03/04 10:34:51;;;;;;;7.07;3.80;;;3.60;64.70;;;;;;5112535;28;20392;-78
2022/03/04 10:37:40;;;;;;;8.77;3.85;;;3.60;64.20;;;;;;5094325;28;20028;-77
2022/03/04 10:40:06;;;;;;;6.53;4.47;;;3.20;64.60;;;;;;5112330;28;20023;-76
2022/03/04 10:42:48;;;;;;;11.68;4.35;;;2.90;65.80;;;;;;5112407;28;20020;-77
2022/03/04 10:45:19;;;;;;;11.75;4.05;;;2.80;66.40;;;;;;5112226;28;20020;-78
2022/03/04 10:48:03;;;;;;;10.35;5.13;;;2.80;66.70;;;;;;5111566;28;20667;-75
2022/03/04 10:50:29;;;;;;;6.35;4.43;;;2.70;67.10;;;;;;5112556;28;20054;-78
2022/03/04 10:53:07;;;;;;;11.90;4.55;;;2.70;67.40;;;;;;5113264;28;20075;-75
2022/03/04 10:55:40;;;;;;;7.78;4.70;;;2.60;67.10;;;;;;5113408;28;20037;-77
2022/03/04 10:58:13;;;;;;;4.97;3.42;;;2.30;67.50;;;;;;5113911;28;20053;-77
2022/03/04 11:00:41;;;;;;;5.75;3.42;;;2.30;68.30;;;;;;5113093;28;20057;-77
2022/03/04 11:03:06;;;;;;;7.30;3.95;;;2.30;68.50;;;;;;5112519;28;20026;-77
2022/03/04 11:05:32;;;;;;;6.65;3.50;;;2.30;68.50;;;;;;5104147;28;20024;-77
2022/03/04 11:07:58;;;;;;;5.32;3.85;;;2.20;68.60;;;;;;5074042;28;20035;-76
2022/03/04 11:10:25;;;;;;;6.18;4.30;;;2.00;69.30;;;;;;5092083;28;20020;-77
2022/03/04 11:12:53;;;;;;;8.43;3.35;;;1.80;69.60;;;;;;5091637;28;20052;-78
2022/03/04 11:15:20;;;;;;;5.32;3.40;;;1.60;70.00;;;;;;5106918;28;20076;-78
2022/03/04 11:17:47;;;;;;;8.43;4.05;;;1.40;70.80;;;;;;5112355;28;20377;-76
2022/03/04 11:20:14;;;;;;;7.05;3.28;;;1.30;71.40;;;;;;5093137;28;20028;-75
2022/03/04 11:22:43;;;;;;;8.13;3.50;;;1.50;71.80;;;;;;5091474;28;20465;-79
2022/03/04 11:25:14;;;;;;;7.50;3.30;;;1.60;71.80;;;;;;5091437;28;20051;-76
2022/03/04 11:27:43;;;;;;;6.72;2.88;;;1.80;71.40;;;;;;5091556;28;20055;-76
2022/03/04 11:30:28;;;;;;;5.22;3.20;;;1.80;70.50;;;;;;5091859;28;20055;-77
2022/03/04 11:33:10;;;;;;;7.18;2.50;;;1.80;70.60;;;;;;5091497;28;20036;-75
2022/03/04 11:35:42;;;;;;;6.00;3.63;;;1.90;70.90;;;;;;5096879;28;20016;-76
2022/03/04 11:38:09;;;;;;;6.30;2.33;;;1.90;70.30;;;;;;5093509;28;20027;-77
2022/03/04 11:40:38;;;;;;;5.05;2.75;;;1.90;70.30;;;;;;5094016;28;20035;-76
2022/03/04 11:43:09;;;;;;;4.72;2.92;;;1.90;70.10;;;;;;5111925;28;20114;-77
2022/03/04 11:45:36;;;;;;;5.93;3.72;;;1.90;70.30;;;;;;5111980;28;20023;-76
2022/03/04 11:48:07;;;;;;;;;;;1.90;70.10;;;;;;5111030;28;20047;-76
2022/03/04 11:50:36;;;;;;;3.47;2.60;;;2.00;70.00;;;;;;5111744;28;19904;-76
2022/03/04 11:53:24;;;;;;;3.85;2.75;;;1.80;70.10;;;;;;5093217;28;20031;-76
2022/03/04 11:56:10;;;;;;;5.88;3.00;;;1.70;70.40;;;;;;5111679;28;20019;-77
2022/03/04 11:58:54;;;;;;;13.00;4.97;;;1.50;71.00;;;;;;5111559;28;20107;-76
2022/03/04 12:01:33;;;;;;;10.57;3.40;;;1.50;71.40;;;;;;5111799;28;20034;-76
2022/03/04 12:04:13;;;;;;;6.95;2.90;;;1.60;71.20;;;;;;5092529;28;20027;-77
2022/03/04 12:06:40;;;;;;;9.13;3.50;;;1.50;71.20;;;;;;5112112;28;20024;-76
2022/03/04 12:09:28;;;;;;;4.88;3.20;;;1.50;71.20;;;;;;5112068;28;20027;-77
2022/03/04 12:12:22;;;;;;;10.75;3.17;;;1.40;71.00;;;;;;5114742;28;20040;-75
2022/03/04 12:15:14;;;;;;;7.28;3.03;;;1.40;71.40;;;;;;5095836;28;20032;-76
2022/03/04 12:17:52;;;;;;;5.50;3.50;;;1.30;71.80;;;;;;5095012;28;20028;-77
2022/03/04 12:20:53;;;;;;;5.85;3.70;;;1.30;72.30;;;;;;5113417;28;20028;-76
2022/03/04 12:23:36;;;;;;;11.02;4.85;;;1.40;72.20;;;;;;5115089;28;20117;-76
2022/03/04 12:26:01;;;;;;;9.10;3.67;;;1.50;71.70;;;;;;5115105;28;20015;-77
2022/03/04 12:28:34;;;;;;;4.47;2.95;;;1.50;71.50;;;;;;5115130;28;20157;-77
2022/03/04 12:31:05;;;;;;;7.45;3.20;;;1.60;71.40;;;;;;5115513;28;20023;-77
2022/03/04 12:33:33;;;;;;;6.57;3.08;;;1.60;71.70;;;;;;5116815;28;20032;-77
2022/03/04 12:36:01;;;;;;;6.72;3.33;;;1.60;71.40;;;;;;5113347;28;20134;-77
2022/03/04 12:38:27;;;;;;;9.15;3.65;;;1.60;71.40;;;;;;5115554;28;20015;-77
2022/03/04 12:40:57;;;;;;;8.65;3.63;;;1.60;71.40;;;;;;5115184;28;20413;-78